Terminal Aerodrome Forecast
Issued by NWS Wakefield, VA

Home | Current Version | Previous Version | Text Only | Print | Product List | Glossary On
Versions: 1 2 3 4 5 6 7 8 9 10 11 12 13 14
000
FTUS41 KAKQ 282339
TAFECG
TAF
KECG 282339Z 2900/2924 05008KT P6SM SKC
     FM290300 04004KT P6SM SKC
     FM291400 03007KT P6SM FEW060
     FM291900 07010KT P6SM SCT060=

USA.gov is the U.S. government's official web portal to all federal, state and local government web resources and services.